sensor_id;sensor_type;location;lat;lon;timestamp;P1;durP1;ratioP1;P2;durP2;ratioP2
30515;SDS011;17297;54.022;10.760;2022-09-27T00:00:39;1.40;;;1.10;;
30515;SDS011;17297;54.022;10.760;2022-09-27T00:03:07;1.70;;;1.30;;
30515;SDS011;17297;54.022;10.760;2022-09-27T00:05:33;1.13;;;1.00;;
30515;SDS011;17297;54.022;10.760;2022-09-27T00:07:58;1.17;;;1.05;;
30515;SDS011;17297;54.022;10.760;2022-09-27T00:10:24;1.40;;;1.20;;
30515;SDS011;17297;54.022;10.760;2022-09-27T00:12:50;2.00;;;1.27;;
30515;SDS011;17297;54.022;10.760;2022-09-27T00:15:17;1.40;;;1.30;;
30515;SDS011;17297;54.022;10.760;2022-09-27T00:17:42;1.83;;;1.38;;
30515;SDS011;17297;54.022;10.760;2022-09-27T00:20:08;2.30;;;1.48;;
30515;SDS011;17297;54.022;10.760;2022-09-27T00:22:34;1.80;;;1.30;;
30515;SDS011;17297;54.022;10.760;2022-09-27T00:24:59;4.35;;;1.40;;
30515;SDS011;17297;54.022;10.760;2022-09-27T00:27:25;1.77;;;1.33;;
30515;SDS011;17297;54.022;10.760;2022-09-27T00:29:52;1.60;;;1.50;;
30515;SDS011;17297;54.022;10.760;2022-09-27T00:32:17;1.50;;;1.40;;
30515;SDS011;17297;54.022;10.760;2022-09-27T00:34:43;2.15;;;1.50;;
30515;SDS011;17297;54.022;10.760;2022-09-27T00:37:09;1.73;;;1.20;;
30515;SDS011;17297;54.022;10.760;2022-09-27T00:39:36;2.95;;;1.35;;
30515;SDS011;17297;54.022;10.760;2022-09-27T00:42:04;2.55;;;1.63;;
30515;SDS011;17297;54.022;10.760;2022-09-27T00:49:55;1.75;;;1.30;;
30515;SDS011;17297;54.022;10.760;2022-09-27T00:55:13;1.92;;;1.30;;
30515;SDS011;17297;54.022;10.760;2022-09-27T00:57:43;2.47;;;1.63;;
30515;SDS011;17297;54.022;10.760;2022-09-27T01:00:11;1.92;;;1.38;;
30515;SDS011;17297;54.022;10.760;2022-09-27T01:02:39;1.73;;;1.02;;
30515;SDS011;17297;54.022;10.760;2022-09-27T01:05:07;1.20;;;1.10;;
30515;SDS011;17297;54.022;10.760;2022-09-27T01:07:34;1.40;;;1.10;;
30515;SDS011;17297;54.022;10.760;2022-09-27T01:10:00;3.28;;;1.48;;
30515;SDS011;17297;54.022;10.760;2022-09-27T01:15:28;1.75;;;1.20;;
30515;SDS011;17297;54.022;10.760;2022-09-27T01:21:06;1.75;;;1.25;;
30515;SDS011;17297;54.022;10.760;2022-09-27T01:23:42;3.15;;;1.17;;
30515;SDS011;17297;54.022;10.760;2022-09-27T01:29:06;1.40;;;1.30;;
30515;SDS011;17297;54.022;10.760;2022-09-27T01:31:41;2.60;;;1.20;;
30515;SDS011;17297;54.022;10.760;2022-09-27T01:34:29;3.25;;;1.50;;
30515;SDS011;17297;54.022;10.760;2022-09-27T01:39:37;1.35;;;1.25;;
30515;SDS011;17297;54.022;10.760;2022-09-27T01:42:38;2.15;;;1.10;;
30515;SDS011;17297;54.022;10.760;2022-09-27T01:45:29;2.20;;;1.45;;
30515;SDS011;17297;54.022;10.760;2022-09-27T01:48:21;2.03;;;1.10;;
30515;SDS011;17297;54.022;10.760;2022-09-27T01:50:57;1.20;;;1.10;;
30515;SDS011;17297;54.022;10.760;2022-09-27T01:53:38;1.23;;;1.13;;
30515;SDS011;17297;54.022;10.760;2022-09-27T01:56:32;1.30;;;1.20;;
30515;SDS011;17297;54.022;10.760;2022-09-27T01:59:14;2.40;;;1.10;;
30515;SDS011;17297;54.022;10.760;2022-09-27T02:01:54;1.70;;;1.10;;
30515;SDS011;17297;54.022;10.760;2022-09-27T02:04:36;2.47;;;1.45;;
30515;SDS011;17297;54.022;10.760;2022-09-27T02:07:19;1.40;;;1.30;;
30515;SDS011;17297;54.022;10.760;2022-09-27T02:09:54;2.28;;;1.50;;
30515;SDS011;17297;54.022;10.760;2022-09-27T02:12:45;1.73;;;1.17;;
30515;SDS011;17297;54.022;10.760;2022-09-27T02:15:21;2.63;;;1.67;;
30515;SDS011;17297;54.022;10.760;2022-09-27T02:18:09;2.00;;;1.17;;
30515;SDS011;17297;54.022;10.760;2022-09-27T02:20:43;1.50;;;1.40;;
30515;SDS011;17297;54.022;10.760;2022-09-27T02:23:18;1.75;;;1.42;;
30515;SDS011;17297;54.022;10.760;2022-09-27T02:26:00;1.30;;;1.20;;
30515;SDS011;17297;54.022;10.760;2022-09-27T02:28:34;1.45;;;1.20;;
30515;SDS011;17297;54.022;10.760;2022-09-27T02:31:12;1.30;;;1.20;;
30515;SDS011;17297;54.022;10.760;2022-09-27T02:33:42;1.70;;;1.38;;
30515;SDS011;17297;54.022;10.760;2022-09-27T02:36:14;3.03;;;1.50;;
30515;SDS011;17297;54.022;10.760;2022-09-27T02:38:40;1.27;;;1.17;;
30515;SDS011;17297;54.022;10.760;2022-09-27T02:41:14;1.60;;;1.48;;
30515;SDS011;17297;54.022;10.760;2022-09-27T02:43:44;1.30;;;1.20;;
30515;SDS011;17297;54.022;10.760;2022-09-27T02:52:43;1.23;;;1.10;;
30515;SDS011;17297;54.022;10.760;2022-09-27T02:55:34;2.38;;;1.63;;
30515;SDS011;17297;54.022;10.760;2022-09-27T03:04:47;2.25;;;1.60;;
30515;SDS011;17297;54.022;10.760;2022-09-27T03:07:42;1.60;;;1.50;;
30515;SDS011;17297;54.022;10.760;2022-09-27T03:10:14;2.53;;;1.33;;
30515;SDS011;17297;54.022;10.760;2022-09-27T03:12:41;1.60;;;1.50;;
30515;SDS011;17297;54.022;10.760;2022-09-27T03:15:07;1.73;;;1.60;;
30515;SDS011;17297;54.022;10.760;2022-09-27T03:17:51;1.45;;;1.35;;
30515;SDS011;17297;54.022;10.760;2022-09-27T03:20:35;1.58;;;1.40;;
30515;SDS011;17297;54.022;10.760;2022-09-27T03:23:08;1.80;;;1.70;;
30515;SDS011;17297;54.022;10.760;2022-09-27T03:25:34;2.10;;;1.40;;
30515;SDS011;17297;54.022;10.760;2022-09-27T03:27:59;1.83;;;1.17;;
30515;SDS011;17297;54.022;10.760;2022-09-27T03:30:25;2.17;;;1.83;;
30515;SDS011;17297;54.022;10.760;2022-09-27T03:32:50;2.20;;;1.60;;
30515;SDS011;17297;54.022;10.760;2022-09-27T03:35:35;1.17;;;1.08;;
30515;SDS011;17297;54.022;10.760;2022-09-27T03:38:03;1.42;;;1.33;;
30515;SDS011;17297;54.022;10.760;2022-09-27T03:40:29;1.42;;;1.30;;
30515;SDS011;17297;54.022;10.760;2022-09-27T03:42:55;1.55;;;1.45;;
30515;SDS011;17297;54.022;10.760;2022-09-27T03:45:20;1.73;;;1.58;;
30515;SDS011;17297;54.022;10.760;2022-09-27T03:47:46;1.65;;;1.52;;
30515;SDS011;17297;54.022;10.760;2022-09-27T03:50:12;1.30;;;1.20;;
30515;SDS011;17297;54.022;10.760;2022-09-27T03:52:38;1.63;;;1.52;;
30515;SDS011;17297;54.022;10.760;2022-09-27T03:55:03;1.63;;;1.52;;
30515;SDS011;17297;54.022;10.760;2022-09-27T03:57:29;4.18;;;1.58;;
30515;SDS011;17297;54.022;10.760;2022-09-27T03:59:56;2.10;;;1.70;;
30515;SDS011;17297;54.022;10.760;2022-09-27T04:02:39;2.20;;;1.75;;
30515;SDS011;17297;54.022;10.760;2022-09-27T04:05:24;1.40;;;1.30;;
30515;SDS011;17297;54.022;10.760;2022-09-27T04:08:13;2.10;;;1.88;;
30515;SDS011;17297;54.022;10.760;2022-09-27T04:10:40;1.77;;;1.52;;
30515;SDS011;17297;54.022;10.760;2022-09-27T04:13:06;2.35;;;2.05;;
30515;SDS011;17297;54.022;10.760;2022-09-27T04:15:37;1.63;;;1.52;;
30515;SDS011;17297;54.022;10.760;2022-09-27T04:18:22;1.65;;;1.55;;
30515;SDS011;17297;54.022;10.760;2022-09-27T04:21:10;1.65;;;1.40;;
30515;SDS011;17297;54.022;10.760;2022-09-27T04:23:42;2.17;;;1.60;;
30515;SDS011;17297;54.022;10.760;2022-09-27T04:26:07;1.63;;;1.38;;
30515;SDS011;17297;54.022;10.760;2022-09-27T04:28:46;1.50;;;1.40;;
30515;SDS011;17297;54.022;10.760;2022-09-27T04:31:11;1.95;;;1.20;;
30515;SDS011;17297;54.022;10.760;2022-09-27T04:34:04;1.50;;;1.40;;
30515;SDS011;17297;54.022;10.760;2022-09-27T04:36:32;1.38;;;1.27;;
30515;SDS011;17297;54.022;10.760;2022-09-27T04:39:02;1.35;;;1.25;;
30515;SDS011;17297;54.022;10.760;2022-09-27T04:41:30;1.23;;;1.13;;
30515;SDS011;17297;54.022;10.760;2022-09-27T04:43:56;1.85;;;1.52;;
30515;SDS011;17297;54.022;10.760;2022-09-27T04:46:25;1.92;;;1.80;;
30515;SDS011;17297;54.022;10.760;2022-09-27T04:48:55;1.20;;;1.10;;
30515;SDS011;17297;54.022;10.760;2022-09-27T04:51:25;1.45;;;1.35;;
30515;SDS011;17297;54.022;10.760;2022-09-27T04:53:52;1.30;;;1.20;;
30515;SDS011;17297;54.022;10.760;2022-09-27T04:56:18;2.40;;;1.38;;
30515;SDS011;17297;54.022;10.760;2022-09-27T04:58:43;1.50;;;1.40;;
30515;SDS011;17297;54.022;10.760;2022-09-27T05:01:09;1.55;;;1.20;;
30515;SDS011;17297;54.022;10.760;2022-09-27T05:04:03;1.67;;;1.38;;
30515;SDS011;17297;54.022;10.760;2022-09-27T05:06:29;2.17;;;1.70;;
30515;SDS011;17297;54.022;10.760;2022-09-27T05:08:59;1.90;;;1.63;;
30515;SDS011;17297;54.022;10.760;2022-09-27T05:11:26;1.88;;;1.42;;
30515;SDS011;17297;54.022;10.760;2022-09-27T05:14:13;1.58;;;1.48;;
30515;SDS011;17297;54.022;10.760;2022-09-27T05:16:57;1.38;;;1.27;;
30515;SDS011;17297;54.022;10.760;2022-09-27T05:19:35;1.85;;;1.60;;
30515;SDS011;17297;54.022;10.760;2022-09-27T05:22:09;1.45;;;1.35;;
30515;SDS011;17297;54.022;10.760;2022-09-27T05:24:35;2.10;;;1.85;;
30515;SDS011;17297;54.022;10.760;2022-09-27T05:27:02;1.73;;;1.63;;
30515;SDS011;17297;54.022;10.760;2022-09-27T05:29:28;2.10;;;1.40;;
30515;SDS011;17297;54.022;10.760;2022-09-27T05:32:16;2.13;;;1.90;;
30515;SDS011;17297;54.022;10.760;2022-09-27T05:34:44;2.05;;;1.85;;
30515;SDS011;17297;54.022;10.760;2022-09-27T05:37:09;1.52;;;1.42;;
30515;SDS011;17297;54.022;10.760;2022-09-27T05:39:37;2.70;;;2.30;;
30515;SDS011;17297;54.022;10.760;2022-09-27T05:42:03;2.20;;;2.00;;
30515;SDS011;17297;54.022;10.760;2022-09-27T05:44:31;2.28;;;2.08;;
30515;SDS011;17297;54.022;10.760;2022-09-27T05:47:01;2.08;;;1.88;;
30515;SDS011;17297;54.022;10.760;2022-09-27T05:49:28;2.75;;;2.20;;
30515;SDS011;17297;54.022;10.760;2022-09-27T05:51:54;2.28;;;2.08;;
30515;SDS011;17297;54.022;10.760;2022-09-27T05:54:19;2.30;;;1.98;;
30515;SDS011;17297;54.022;10.760;2022-09-27T05:56:45;1.75;;;1.60;;
30515;SDS011;17297;54.022;10.760;2022-09-27T05:59:21;2.05;;;1.85;;
30515;SDS011;17297;54.022;10.760;2022-09-27T06:02:05;1.50;;;1.40;;
30515;SDS011;17297;54.022;10.760;2022-09-27T06:04:56;2.40;;;1.55;;
30515;SDS011;17297;54.022;10.760;2022-09-27T06:07:40;1.88;;;1.77;;
30515;SDS011;17297;54.022;10.760;2022-09-27T06:10:14;1.60;;;1.50;;
30515;SDS011;17297;54.022;10.760;2022-09-27T06:12:44;1.38;;;1.10;;
30515;SDS011;17297;54.022;10.760;2022-09-27T06:15:32;1.50;;;1.40;;
30515;SDS011;17297;54.022;10.760;2022-09-27T06:18:03;1.40;;;1.30;;
30515;SDS011;17297;54.022;10.760;2022-09-27T06:20:35;1.45;;;1.35;;
30515;SDS011;17297;54.022;10.760;2022-09-27T06:25:35;1.30;;;1.20;;
30515;SDS011;17297;54.022;10.760;2022-09-27T06:28:12;1.30;;;1.20;;
30515;SDS011;17297;54.022;10.760;2022-09-27T06:30:39;1.40;;;1.30;;
30515;SDS011;17297;54.022;10.760;2022-09-27T06:33:18;1.20;;;1.05;;
30515;SDS011;17297;54.022;10.760;2022-09-27T06:35:48;1.05;;;0.95;;
30515;SDS011;17297;54.022;10.760;2022-09-27T06:38:16;1.52;;;1.20;;
30515;SDS011;17297;54.022;10.760;2022-09-27T06:40:50;0.97;;;0.93;;
30515;SDS011;17297;54.022;10.760;2022-09-27T06:43:20;1.30;;;1.20;;
30515;SDS011;17297;54.022;10.760;2022-09-27T06:46:11;1.17;;;1.08;;
30515;SDS011;17297;54.022;10.760;2022-09-27T06:49:00;1.63;;;1.52;;
30515;SDS011;17297;54.022;10.760;2022-09-27T06:51:25;1.20;;;1.10;;
30515;SDS011;17297;54.022;10.760;2022-09-27T06:53:53;1.55;;;1.25;;
30515;SDS011;17297;54.022;10.760;2022-09-27T06:56:19;1.50;;;1.40;;
30515;SDS011;17297;54.022;10.760;2022-09-27T06:58:53;1.60;;;1.50;;
30515;SDS011;17297;54.022;10.760;2022-09-27T07:01:43;1.50;;;1.40;;
30515;SDS011;17297;54.022;10.760;2022-09-27T07:04:27;1.58;;;1.48;;
30515;SDS011;17297;54.022;10.760;2022-09-27T07:07:06;1.23;;;1.13;;
30515;SDS011;17297;54.022;10.760;2022-09-27T07:09:34;1.83;;;1.45;;
30515;SDS011;17297;54.022;10.760;2022-09-27T07:12:00;1.55;;;1.42;;
30515;SDS011;17297;54.022;10.760;2022-09-27T07:14:26;1.70;;;1.60;;
30515;SDS011;17297;54.022;10.760;2022-09-27T07:16:52;2.15;;;1.70;;
30515;SDS011;17297;54.022;10.760;2022-09-27T07:19:18;2.30;;;1.98;;
30515;SDS011;17297;54.022;10.760;2022-09-27T07:21:49;1.75;;;1.65;;
30515;SDS011;17297;54.022;10.760;2022-09-27T07:24:15;1.90;;;1.70;;
30515;SDS011;17297;54.022;10.760;2022-09-27T07:26:41;1.40;;;1.30;;
30515;SDS011;17297;54.022;10.760;2022-09-27T07:29:08;1.50;;;1.40;;
30515;SDS011;17297;54.022;10.760;2022-09-27T07:31:35;1.48;;;1.33;;
30515;SDS011;17297;54.022;10.760;2022-09-27T07:34:02;1.52;;;1.42;;
30515;SDS011;17297;54.022;10.760;2022-09-27T07:36:28;1.30;;;1.20;;
30515;SDS011;17297;54.022;10.760;2022-09-27T07:38:57;1.60;;;1.50;;
30515;SDS011;17297;54.022;10.760;2022-09-27T07:41:23;1.23;;;1.13;;
30515;SDS011;17297;54.022;10.760;2022-09-27T07:43:49;1.40;;;1.10;;
30515;SDS011;17297;54.022;10.760;2022-09-27T07:46:16;1.48;;;1.10;;
30515;SDS011;17297;54.022;10.760;2022-09-27T07:48:49;2.13;;;1.48;;
30515;SDS011;17297;54.022;10.760;2022-09-27T07:51:32;1.43;;;1.30;;
30515;SDS011;17297;54.022;10.760;2022-09-27T07:54:07;1.30;;;1.20;;
30515;SDS011;17297;54.022;10.760;2022-09-27T07:56:44;1.50;;;1.40;;
30515;SDS011;17297;54.022;10.760;2022-09-27T07:59:12;2.17;;;1.17;;
30515;SDS011;17297;54.022;10.760;2022-09-27T08:01:37;1.10;;;1.00;;
30515;SDS011;17297;54.022;10.760;2022-09-27T08:04:03;5.55;;;1.50;;
30515;SDS011;17297;54.022;10.760;2022-09-27T08:06:29;1.40;;;1.20;;
30515;SDS011;17297;54.022;10.760;2022-09-27T08:08:55;2.22;;;1.45;;
30515;SDS011;17297;54.022;10.760;2022-09-27T08:11:22;1.00;;;1.00;;
30515;SDS011;17297;54.022;10.760;2022-09-27T08:13:49;1.45;;;1.33;;
30515;SDS011;17297;54.022;10.760;2022-09-27T08:16:18;1.50;;;1.40;;
30515;SDS011;17297;54.022;10.760;2022-09-27T08:19:12;1.52;;;1.20;;
30515;SDS011;17297;54.022;10.760;2022-09-27T08:21:43;1.25;;;1.00;;
30515;SDS011;17297;54.022;10.760;2022-09-27T08:24:12;1.20;;;1.10;;
30515;SDS011;17297;54.022;10.760;2022-09-27T08:26:59;1.10;;;1.00;;
30515;SDS011;17297;54.022;10.760;2022-09-27T08:29:44;1.33;;;1.20;;
30515;SDS011;17297;54.022;10.760;2022-09-27T08:32:10;1.38;;;1.10;;
30515;SDS011;17297;54.022;10.760;2022-09-27T08:34:36;1.10;;;1.00;;
30515;SDS011;17297;54.022;10.760;2022-09-27T08:37:02;1.35;;;1.05;;
30515;SDS011;17297;54.022;10.760;2022-09-27T08:39:28;2.53;;;1.20;;
30515;SDS011;17297;54.022;10.760;2022-09-27T08:47:39;1.95;;;1.25;;
30515;SDS011;17297;54.022;10.760;2022-09-27T08:55:33;0.80;;;0.80;;
30515;SDS011;17297;54.022;10.760;2022-09-27T08:58:12;1.20;;;1.00;;
30515;SDS011;17297;54.022;10.760;2022-09-27T09:00:43;1.45;;;1.20;;
30515;SDS011;17297;54.022;10.760;2022-09-27T09:03:15;1.17;;;1.08;;
30515;SDS011;17297;54.022;10.760;2022-09-27T09:05:48;2.97;;;1.00;;
30515;SDS011;17297;54.022;10.760;2022-09-27T09:11:00;1.10;;;1.00;;
30515;SDS011;17297;54.022;10.760;2022-09-27T09:14:05;1.15;;;1.05;;
30515;SDS011;17297;54.022;10.760;2022-09-27T09:25:57;0.80;;;0.80;;
30515;SDS011;17297;54.022;10.760;2022-09-27T09:31:41;1.10;;;1.00;;
30515;SDS011;17297;54.022;10.760;2022-09-27T09:34:17;1.50;;;1.40;;
30515;SDS011;17297;54.022;10.760;2022-09-27T09:36:58;1.30;;;1.20;;
30515;SDS011;17297;54.022;10.760;2022-09-27T09:39:35;1.33;;;1.20;;
30515;SDS011;17297;54.022;10.760;2022-09-27T09:44:57;1.40;;;1.00;;
30515;SDS011;17297;54.022;10.760;2022-09-27T09:49:57;1.15;;;1.05;;
30515;SDS011;17297;54.022;10.760;2022-09-27T09:52:35;1.20;;;0.90;;
30515;SDS011;17297;54.022;10.760;2022-09-27T09:55:14;1.48;;;1.30;;
30515;SDS011;17297;54.022;10.760;2022-09-27T10:00:43;1.40;;;1.30;;
30515;SDS011;17297;54.022;10.760;2022-09-27T10:03:09;1.23;;;1.08;;
30515;SDS011;17297;54.022;10.760;2022-09-27T10:05:35;0.95;;;0.95;;
30515;SDS011;17297;54.022;10.760;2022-09-27T10:08:05;1.00;;;0.98;;
30515;SDS011;17297;54.022;10.760;2022-09-27T10:10:35;1.58;;;1.17;;
30515;SDS011;17297;54.022;10.760;2022-09-27T10:13:29;1.33;;;1.20;;
30515;SDS011;17297;54.022;10.760;2022-09-27T10:16:05;0.95;;;0.90;;
30515;SDS011;17297;54.022;10.760;2022-09-27T10:18:37;1.30;;;1.20;;
30515;SDS011;17297;54.022;10.760;2022-09-27T10:21:24;1.00;;;0.90;;
30515;SDS011;17297;54.022;10.760;2022-09-27T10:24:09;0.98;;;0.75;;
30515;SDS011;17297;54.022;10.760;2022-09-27T10:27:09;1.00;;;0.90;;
30515;SDS011;17297;54.022;10.760;2022-09-27T10:29:37;1.00;;;0.73;;
30515;SDS011;17297;54.022;10.760;2022-09-27T10:32:11;0.75;;;0.75;;
30515;SDS011;17297;54.022;10.760;2022-09-27T10:34:46;1.00;;;0.68;;
30515;SDS011;17297;54.022;10.760;2022-09-27T10:39:45;0.60;;;0.55;;
30515;SDS011;17297;54.022;10.760;2022-09-27T10:42:33;1.25;;;0.82;;
30515;SDS011;17297;54.022;10.760;2022-09-27T10:45:19;1.13;;;0.55;;
30515;SDS011;17297;54.022;10.760;2022-09-27T10:47:53;1.65;;;0.60;;
30515;SDS011;17297;54.022;10.760;2022-09-27T10:50:25;0.60;;;0.60;;
30515;SDS011;17297;54.022;10.760;2022-09-27T10:53:02;0.75;;;0.60;;
30515;SDS011;17297;54.022;10.760;2022-09-27T10:55:30;0.60;;;0.60;;
30515;SDS011;17297;54.022;10.760;2022-09-27T10:58:00;0.82;;;0.82;;
30515;SDS011;17297;54.022;10.760;2022-09-27T11:00:31;1.85;;;0.50;;
30515;SDS011;17297;54.022;10.760;2022-09-27T11:03:03;1.50;;;0.70;;
30515;SDS011;17297;54.022;10.760;2022-09-27T11:05:36;1.10;;;0.70;;
30515;SDS011;17297;54.022;10.760;2022-09-27T11:08:20;1.17;;;0.70;;
30515;SDS011;17297;54.022;10.760;2022-09-27T11:11:05;1.08;;;0.80;;
30515;SDS011;17297;54.022;10.760;2022-09-27T11:13:33;1.23;;;0.70;;
30515;SDS011;17297;54.022;10.760;2022-09-27T11:18:39;0.93;;;0.50;;
30515;SDS011;17297;54.022;10.760;2022-09-27T11:21:18;1.08;;;0.70;;
30515;SDS011;17297;54.022;10.760;2022-09-27T11:26:53;3.00;;;1.17;;
30515;SDS011;17297;54.022;10.760;2022-09-27T11:35:29;1.05;;;0.75;;
30515;SDS011;17297;54.022;10.760;2022-09-27T11:38:01;1.98;;;0.80;;
30515;SDS011;17297;54.022;10.760;2022-09-27T11:43:21;2.35;;;1.20;;
30515;SDS011;17297;54.022;10.760;2022-09-27T11:51:21;1.75;;;0.82;;
30515;SDS011;17297;54.022;10.760;2022-09-27T11:59:25;2.42;;;1.30;;
30515;SDS011;17297;54.022;10.760;2022-09-27T12:02:16;2.17;;;1.55;;
30515;SDS011;17297;54.022;10.760;2022-09-27T12:05:27;0.88;;;0.75;;
30515;SDS011;17297;54.022;10.760;2022-09-27T12:10:58;0.60;;;0.60;;
30515;SDS011;17297;54.022;10.760;2022-09-27T12:13:35;0.55;;;0.52;;
30515;SDS011;17297;54.022;10.760;2022-09-27T12:16:07;0.85;;;0.70;;
30515;SDS011;17297;54.022;10.760;2022-09-27T12:18:37;1.10;;;0.70;;
30515;SDS011;17297;54.022;10.760;2022-09-27T12:21:09;0.50;;;0.50;;
30515;SDS011;17297;54.022;10.760;2022-09-27T12:26:37;0.50;;;0.50;;
30515;SDS011;17297;54.022;10.760;2022-09-27T12:29:14;0.90;;;0.80;;
30515;SDS011;17297;54.022;10.760;2022-09-27T12:35:05;2.40;;;0.70;;
30515;SDS011;17297;54.022;10.760;2022-09-27T12:37:51;0.68;;;0.68;;
30515;SDS011;17297;54.022;10.760;2022-09-27T12:40:26;0.98;;;0.70;;
30515;SDS011;17297;54.022;10.760;2022-09-27T12:45:53;1.40;;;0.80;;
30515;SDS011;17297;54.022;10.760;2022-09-27T12:51:25;1.65;;;0.68;;
30515;SDS011;17297;54.022;10.760;2022-09-27T12:54:07;0.88;;;0.60;;
30515;SDS011;17297;54.022;10.760;2022-09-27T12:57:02;1.30;;;1.00;;
30515;SDS011;17297;54.022;10.760;2022-09-27T12:59:55;0.80;;;0.50;;
30515;SDS011;17297;54.022;10.760;2022-09-27T13:02:26;0.63;;;0.60;;
30515;SDS011;17297;54.022;10.760;2022-09-27T13:14:04;1.00;;;0.80;;
30515;SDS011;17297;54.022;10.760;2022-09-27T13:16:40;0.85;;;0.80;;
30515;SDS011;17297;54.022;10.760;2022-09-27T13:19:15;1.38;;;0.93;;
30515;SDS011;17297;54.022;10.760;2022-09-27T13:22:50;1.75;;;1.33;;
30515;SDS011;17297;54.022;10.760;2022-09-27T13:30:54;1.48;;;1.33;;
30515;SDS011;17297;54.022;10.760;2022-09-27T13:33:39;1.10;;;1.00;;
30515;SDS011;17297;54.022;10.760;2022-09-27T13:47:14;1.75;;;1.10;;
30515;SDS011;17297;54.022;10.760;2022-09-27T13:50:00;1.13;;;0.90;;
30515;SDS011;17297;54.022;10.760;2022-09-27T13:55:46;1.42;;;1.13;;
30515;SDS011;17297;54.022;10.760;2022-09-27T13:58:49;1.42;;;1.10;;
30515;SDS011;17297;54.022;10.760;2022-09-27T14:01:51;1.15;;;1.05;;
30515;SDS011;17297;54.022;10.760;2022-09-27T14:04:30;1.27;;;1.05;;
30515;SDS011;17297;54.022;10.760;2022-09-27T14:07:01;1.30;;;1.10;;
30515;SDS011;17297;54.022;10.760;2022-09-27T14:09:32;1.85;;;1.00;;
30515;SDS011;17297;54.022;10.760;2022-09-27T14:12:10;1.58;;;1.45;;
30515;SDS011;17297;54.022;10.760;2022-09-27T14:14:40;1.75;;;1.05;;
30515;SDS011;17297;54.022;10.760;2022-09-27T14:17:07;1.40;;;1.27;;
30515;SDS011;17297;54.022;10.760;2022-09-27T14:19:36;1.60;;;1.30;;
30515;SDS011;17297;54.022;10.760;2022-09-27T14:22:21;1.10;;;1.00;;
30515;SDS011;17297;54.022;10.760;2022-09-27T14:24:56;1.20;;;1.10;;
30515;SDS011;17297;54.022;10.760;2022-09-27T14:27:35;1.10;;;1.00;;
30515;SDS011;17297;54.022;10.760;2022-09-27T14:30:21;2.38;;;1.45;;
30515;SDS011;17297;54.022;10.760;2022-09-27T14:32:58;1.33;;;1.20;;
30515;SDS011;17297;54.022;10.760;2022-09-27T14:35:38;2.55;;;1.35;;
30515;SDS011;17297;54.022;10.760;2022-09-27T14:38:32;1.25;;;1.15;;
30515;SDS011;17297;54.022;10.760;2022-09-27T14:41:00;1.80;;;1.40;;
30515;SDS011;17297;54.022;10.760;2022-09-27T14:43:26;1.40;;;1.30;;
30515;SDS011;17297;54.022;10.760;2022-09-27T14:45:57;2.22;;;1.33;;
30515;SDS011;17297;54.022;10.760;2022-09-27T14:48:37;2.03;;;1.45;;
30515;SDS011;17297;54.022;10.760;2022-09-27T14:53:39;2.10;;;1.63;;
30515;SDS011;17297;54.022;10.760;2022-09-27T14:56:08;2.25;;;1.55;;
30515;SDS011;17297;54.022;10.760;2022-09-27T14:58:41;3.00;;;1.98;;
30515;SDS011;17297;54.022;10.760;2022-09-27T15:01:12;3.83;;;1.85;;
30515;SDS011;17297;54.022;10.760;2022-09-27T15:03:40;2.15;;;1.35;;
30515;SDS011;17297;54.022;10.760;2022-09-27T15:06:07;1.58;;;1.45;;
30515;SDS011;17297;54.022;10.760;2022-09-27T15:08:34;1.95;;;1.75;;
30515;SDS011;17297;54.022;10.760;2022-09-27T15:11:00;1.92;;;1.77;;
30515;SDS011;17297;54.022;10.760;2022-09-27T15:13:29;1.48;;;1.38;;
30515;SDS011;17297;54.022;10.760;2022-09-27T15:15:56;1.80;;;1.70;;
30515;SDS011;17297;54.022;10.760;2022-09-27T15:18:30;1.90;;;1.58;;
30515;SDS011;17297;54.022;10.760;2022-09-27T15:21:02;1.80;;;1.70;;
30515;SDS011;17297;54.022;10.760;2022-09-27T15:23:29;1.50;;;1.38;;
30515;SDS011;17297;54.022;10.760;2022-09-27T15:26:07;1.42;;;1.23;;
30515;SDS011;17297;54.022;10.760;2022-09-27T15:28:41;1.05;;;0.95;;
30515;SDS011;17297;54.022;10.760;2022-09-27T15:31:08;1.52;;;0.85;;
30515;SDS011;17297;54.022;10.760;2022-09-27T15:33:33;1.08;;;0.90;;
30515;SDS011;17297;54.022;10.760;2022-09-27T15:36:03;0.80;;;0.80;;
30515;SDS011;17297;54.022;10.760;2022-09-27T15:41:05;2.05;;;0.90;;
30515;SDS011;17297;54.022;10.760;2022-09-27T15:43:42;0.80;;;0.80;;
30515;SDS011;17297;54.022;10.760;2022-09-27T15:51:42;0.80;;;0.80;;
30515;SDS011;17297;54.022;10.760;2022-09-27T15:54:21;1.00;;;0.90;;
30515;SDS011;17297;54.022;10.760;2022-09-27T15:56:48;1.75;;;1.15;;
30515;SDS011;17297;54.022;10.760;2022-09-27T15:59:18;1.10;;;1.00;;
30515;SDS011;17297;54.022;10.760;2022-09-27T16:01:45;1.35;;;0.93;;
30515;SDS011;17297;54.022;10.760;2022-09-27T16:04:11;1.00;;;0.90;;
30515;SDS011;17297;54.022;10.760;2022-09-27T16:06:37;1.63;;;0.90;;
30515;SDS011;17297;54.022;10.760;2022-09-27T16:09:02;0.90;;;0.90;;
30515;SDS011;17297;54.022;10.760;2022-09-27T16:11:28;1.25;;;1.00;;
30515;SDS011;17297;54.022;10.760;2022-09-27T16:13:53;0.95;;;0.90;;
30515;SDS011;17297;54.022;10.760;2022-09-27T16:16:19;0.88;;;0.80;;
30515;SDS011;17297;54.022;10.760;2022-09-27T16:18:45;1.20;;;1.10;;
30515;SDS011;17297;54.022;10.760;2022-09-27T16:21:12;1.10;;;1.00;;
30515;SDS011;17297;54.022;10.760;2022-09-27T16:23:37;0.80;;;0.80;;
30515;SDS011;17297;54.022;10.760;2022-09-27T16:26:03;1.60;;;0.80;;
30515;SDS011;17297;54.022;10.760;2022-09-27T16:28:29;1.13;;;1.02;;
30515;SDS011;17297;54.022;10.760;2022-09-27T16:30:59;1.85;;;1.10;;
30515;SDS011;17297;54.022;10.760;2022-09-27T16:33:28;1.08;;;0.98;;
30515;SDS011;17297;54.022;10.760;2022-09-27T16:35:53;0.90;;;0.90;;
30515;SDS011;17297;54.022;10.760;2022-09-27T16:38:19;1.38;;;1.10;;
30515;SDS011;17297;54.022;10.760;2022-09-27T16:40:45;3.33;;;1.30;;
30515;SDS011;17297;54.022;10.760;2022-09-27T16:43:10;1.08;;;0.98;;
30515;SDS011;17297;54.022;10.760;2022-09-27T16:45:36;0.70;;;0.70;;
30515;SDS011;17297;54.022;10.760;2022-09-27T16:48:01;1.50;;;0.85;;
30515;SDS011;17297;54.022;10.760;2022-09-27T16:50:26;1.10;;;1.00;;
30515;SDS011;17297;54.022;10.760;2022-09-27T16:53:10;0.80;;;0.80;;
30515;SDS011;17297;54.022;10.760;2022-09-27T16:55:37;1.27;;;1.15;;
30515;SDS011;17297;54.022;10.760;2022-09-27T16:58:02;1.15;;;1.05;;
30515;SDS011;17297;54.022;10.760;2022-09-27T17:00:29;1.13;;;0.90;;
30515;SDS011;17297;54.022;10.760;2022-09-27T17:02:57;1.08;;;0.88;;
30515;SDS011;17297;54.022;10.760;2022-09-27T17:05:23;1.08;;;0.98;;
30515;SDS011;17297;54.022;10.760;2022-09-27T17:07:49;1.23;;;1.10;;
30515;SDS011;17297;54.022;10.760;2022-09-27T17:10:17;0.80;;;0.80;;
30515;SDS011;17297;54.022;10.760;2022-09-27T17:12:43;1.25;;;1.00;;
30515;SDS011;17297;54.022;10.760;2022-09-27T17:15:10;0.85;;;0.85;;
30515;SDS011;17297;54.022;10.760;2022-09-27T17:17:35;1.23;;;1.02;;
30515;SDS011;17297;54.022;10.760;2022-09-27T17:20:01;0.70;;;0.70;;
30515;SDS011;17297;54.022;10.760;2022-09-27T17:22:26;1.10;;;1.00;;
30515;SDS011;17297;54.022;10.760;2022-09-27T17:24:51;1.48;;;0.98;;
30515;SDS011;17297;54.022;10.760;2022-09-27T17:27:17;1.08;;;0.98;;
30515;SDS011;17297;54.022;10.760;2022-09-27T17:29:42;1.20;;;1.10;;
30515;SDS011;17297;54.022;10.760;2022-09-27T17:32:08;1.38;;;1.23;;
30515;SDS011;17297;54.022;10.760;2022-09-27T17:34:33;1.02;;;0.93;;
30515;SDS011;17297;54.022;10.760;2022-09-27T17:37:00;1.35;;;0.90;;
30515;SDS011;17297;54.022;10.760;2022-09-27T17:39:25;0.98;;;0.90;;